createdAt,value
2017-06-21T00:00:37.721Z,72.40
2017-06-21T00:03:06.040Z,72.50
2017-06-21T00:05:34.345Z,72.70
2017-06-21T00:08:02.641Z,72.90
2017-06-21T00:10:30.968Z,73.10
2017-06-21T00:12:59.264Z,73.20
2017-06-21T00:15:27.588Z,73.30
2017-06-21T00:17:55.876Z,73.50
2017-06-21T00:20:24.201Z,73.80
2017-06-21T00:22:52.492Z,74.10
2017-06-21T00:25:20.809Z,74.00
2017-06-21T00:27:49.104Z,74.30
2017-06-21T00:30:17.400Z,74.60
2017-06-21T00:32:45.724Z,74.60
2017-06-21T00:35:14.037Z,74.50
2017-06-21T00:37:42.385Z,74.60
2017-06-21T00:40:10.696Z,74.70
2017-06-21T00:42:39.013Z,75.00
2017-06-21T00:45:07.312Z,75.10
2017-06-21T00:47:35.633Z,75.40
2017-06-21T00:50:03.929Z,75.60
2017-06-21T00:52:32.225Z,76.00
2017-06-21T00:55:00.549Z,76.00
2017-06-21T00:57:28.849Z,76.40
2017-06-21T00:59:57.167Z,76.50
2017-06-21T01:02:25.464Z,76.60
2017-06-21T01:04:53.781Z,76.80
2017-06-21T01:07:22.077Z,76.80
2017-06-21T01:09:50.403Z,77.70
2017-06-21T01:12:18.693Z,76.90
2017-06-21T01:14:46.996Z,76.80
2017-06-21T01:17:15.337Z,76.60
2017-06-21T01:19:43.648Z,76.90
2017-06-21T01:22:11.994Z,77.10
2017-06-21T01:24:40.293Z,77.40
2017-06-21T01:27:08.613Z,77.40
2017-06-21T01:29:36.904Z,77.60
2017-06-21T01:32:05.218Z,77.60
2017-06-21T01:34:33.511Z,78.30
2017-06-21T01:37:01.809Z,77.50
2017-06-21T01:39:30.128Z,77.50
2017-06-21T01:41:58.423Z,77.70
2017-06-21T01:44:26.740Z,77.10
2017-06-21T01:46:55.037Z,78.10
2017-06-21T01:49:23.347Z,78.30
2017-06-21T01:51:51.640Z,78.70
2017-06-21T01:54:19.955Z,78.80
2017-06-21T01:56:48.249Z,78.90
2017-06-21T01:59:16.540Z,78.80
2017-06-21T02:01:44.868Z,79.00
2017-06-21T02:04:13.176Z,79.20
2017-06-21T02:06:41.496Z,79.40
2017-06-21T02:09:09.797Z,79.30
2017-06-21T02:11:38.113Z,79.50
2017-06-21T02:14:06.408Z,79.50
2017-06-21T02:16:34.771Z,79.50
2017-06-21T02:19:03.064Z,79.40
2017-06-21T02:21:31.360Z,79.50
2017-06-21T02:23:59.679Z,79.50
2017-06-21T02:26:27.976Z,79.50
2017-06-21T02:28:56.287Z,79.70
2017-06-21T02:31:24.585Z,79.70
2017-06-21T02:33:52.901Z,79.80
2017-06-21T02:36:21.196Z,79.70
2017-06-21T02:38:49.524Z,79.60
2017-06-21T02:41:17.848Z,79.70
2017-06-21T02:43:46.137Z,79.80
2017-06-21T02:46:14.453Z,79.90
2017-06-21T02:48:42.754Z,80.00
2017-06-21T02:51:11.093Z,80.10
2017-06-21T02:53:39.392Z,80.00
2017-06-21T02:56:07.705Z,80.10
2017-06-21T02:58:35.992Z,80.20
2017-06-21T03:01:04.320Z,80.20
2017-06-21T03:03:32.612Z,80.20
2017-06-21T03:06:00.909Z,80.10
2017-06-21T03:08:29.230Z,80.10
2017-06-21T03:10:57.524Z,80.00
2017-06-21T03:13:25.836Z,80.00
2017-06-21T03:15:54.133Z,80.00
2017-06-21T03:18:22.444Z,80.10
2017-06-21T03:20:50.737Z,79.80
2017-06-21T03:23:19.056Z,80.00
2017-06-21T03:25:47.348Z,80.00
2017-06-21T03:28:15.642Z,79.90
2017-06-21T03:30:43.955Z,79.90
2017-06-21T03:33:12.257Z,79.90
2017-06-21T03:35:40.580Z,80.50
2017-06-21T03:38:08.876Z,79.60
2017-06-21T03:40:37.189Z,79.70
2017-06-21T03:43:05.485Z,79.60
2017-06-21T03:45:33.801Z,79.40
2017-06-21T03:48:02.091Z,79.30
2017-06-21T03:50:30.425Z,79.20
2017-06-21T03:52:58.733Z,79.10
2017-06-21T03:55:27.024Z,79.00
2017-06-21T03:57:55.344Z,78.80
2017-06-21T04:00:23.640Z,78.40
2017-06-21T04:02:51.953Z,78.10
2017-06-21T04:05:20.245Z,77.40
2017-06-21T04:07:48.560Z,76.20
2017-06-21T04:10:16.848Z,74.90
2017-06-21T04:12:45.149Z,74.00
2017-06-21T04:15:13.461Z,73.60
2017-06-21T04:17:41.760Z,73.60
2017-06-21T04:20:10.080Z,73.40
2017-06-21T04:22:38.388Z,73.50
2017-06-21T04:25:06.716Z,73.30
2017-06-21T04:27:35.010Z,73.30
2017-06-21T04:30:03.300Z,73.00
2017-06-21T04:32:31.613Z,72.80
2017-06-21T04:34:59.913Z,72.50
2017-06-21T04:37:28.226Z,72.20
2017-06-21T04:39:56.559Z,73.00
2017-06-21T04:42:24.901Z,71.90
2017-06-21T04:44:53.196Z,71.40
2017-06-21T04:47:21.492Z,70.90
2017-06-21T04:49:49.825Z,70.00
2017-06-21T04:52:18.122Z,69.00
2017-06-21T04:54:46.437Z,67.80
2017-06-21T04:57:14.738Z,66.50
2017-06-21T04:59:43.055Z,65.20
2017-06-21T05:02:11.370Z,64.60
2017-06-21T05:04:39.716Z,64.80
2017-06-21T05:07:08.009Z,65.90
2017-06-21T05:09:36.297Z,65.40
2017-06-21T05:12:04.608Z,65.80
2017-06-21T05:14:32.900Z,67.00
2017-06-21T05:17:01.217Z,66.60
2017-06-21T05:19:29.513Z,66.90
2017-06-21T05:21:57.824Z,67.30
2017-06-21T05:24:26.685Z,67.50
2017-06-21T05:26:55.345Z,67.30
2017-06-21T05:29:23.641Z,67.30
2017-06-21T05:31:51.932Z,68.40
2017-06-21T05:34:20.240Z,68.30
2017-06-21T05:36:48.532Z,68.50
2017-06-21T05:39:16.844Z,68.70
2017-06-21T05:41:45.137Z,68.80
2017-06-21T05:44:12.685Z,68.80
2017-06-21T05:46:40.985Z,68.30
2017-06-21T05:49:09.281Z,68.70
2017-06-21T05:51:37.592Z,68.70
2017-06-21T05:54:05.880Z,68.20
2017-06-21T05:56:34.196Z,67.60
2017-06-21T05:59:02.491Z,67.20
2017-06-21T06:01:30.808Z,66.60
2017-06-21T06:03:59.100Z,66.20
2017-06-21T06:06:27.437Z,66.00
2017-06-21T06:08:55.729Z,65.90
2017-06-21T06:11:24.024Z,65.80
2017-06-21T06:13:52.341Z,65.70
2017-06-21T06:16:20.636Z,65.10
2017-06-21T06:18:48.953Z,64.50
2017-06-21T06:21:17.255Z,64.20
2017-06-21T06:23:45.569Z,64.10
2017-06-21T06:26:13.865Z,64.10
2017-06-21T06:28:42.213Z,63.90
2017-06-21T06:31:10.509Z,64.60
2017-06-21T06:33:38.801Z,63.60
2017-06-21T06:36:07.120Z,63.10
2017-06-21T06:38:35.409Z,62.50
2017-06-21T06:41:03.731Z,62.00
2017-06-21T06:43:32.020Z,61.90
2017-06-21T06:46:00.341Z,62.10
2017-06-21T06:48:28.632Z,63.10
2017-06-21T06:50:56.968Z,62.80
2017-06-21T06:53:25.257Z,62.20
2017-06-21T06:55:53.557Z,61.50
2017-06-21T06:58:21.873Z,61.10
2017-06-21T07:00:50.167Z,60.70
2017-06-21T07:03:18.484Z,59.90
2017-06-21T07:05:46.783Z,59.90
2017-06-21T07:08:15.105Z,59.10
2017-06-21T07:10:43.406Z,59.00
2017-06-21T07:13:11.743Z,59.10
2017-06-21T07:15:40.036Z,59.60
2017-06-21T07:18:08.328Z,59.40
2017-06-21T07:20:36.644Z,58.80
2017-06-21T07:23:04.937Z,58.10
2017-06-21T07:25:33.248Z,57.60
2017-06-21T07:28:01.540Z,57.60
2017-06-21T07:30:29.852Z,57.20
2017-06-21T07:32:58.144Z,56.70
2017-06-21T07:35:26.456Z,56.50
2017-06-21T07:37:54.785Z,56.10
2017-06-21T07:40:23.076Z,56.10
2017-06-21T07:42:51.388Z,56.60
2017-06-21T07:45:19.681Z,56.30
2017-06-21T07:47:47.992Z,55.80
2017-06-21T07:50:16.299Z,55.60
2017-06-21T07:52:44.648Z,55.90
2017-06-21T07:55:12.955Z,54.90
2017-06-21T07:57:41.290Z,54.60
2017-06-21T08:00:09.584Z,53.50
2017-06-21T08:02:37.876Z,53.00
2017-06-21T08:05:06.193Z,52.70
2017-06-21T08:07:34.484Z,52.30
2017-06-21T08:10:02.802Z,51.70
2017-06-21T08:12:31.098Z,50.40
2017-06-21T08:14:59.417Z,49.40
2017-06-21T08:17:27.709Z,48.90
2017-06-21T08:19:56.028Z,47.60
2017-06-21T08:22:24.316Z,47.90
2017-06-21T08:24:52.612Z,47.50
2017-06-21T08:27:20.930Z,47.30
2017-06-21T08:29:49.221Z,47.40
2017-06-21T08:32:17.541Z,45.00
2017-06-21T08:34:45.836Z,44.40
2017-06-21T08:37:14.160Z,44.20
2017-06-21T08:39:42.471Z,43.80
2017-06-21T08:42:10.807Z,43.50
2017-06-21T08:44:39.109Z,43.20
2017-06-21T08:47:07.397Z,42.50
2017-06-21T08:49:35.708Z,41.80
2017-06-21T08:52:04.002Z,41.20
2017-06-21T08:54:32.312Z,40.70
2017-06-21T08:57:00.617Z,40.60
2017-06-21T08:59:29.047Z,40.20
2017-06-21T09:01:57.333Z,39.60
2017-06-21T09:04:24.885Z,39.60
2017-06-21T09:06:53.188Z,38.40
2017-06-21T09:09:21.480Z,37.70
2017-06-21T09:11:49.794Z,38.20
2017-06-21T09:14:18.085Z,37.70
2017-06-21T09:16:46.396Z,38.30
2017-06-21T09:19:14.685Z,36.90
2017-06-21T09:21:42.996Z,35.90
2017-06-21T09:24:11.297Z,33.70
2017-06-21T09:26:39.628Z,33.00
2017-06-21T09:29:07.917Z,33.10
2017-06-21T09:31:36.204Z,33.00
2017-06-21T09:34:04.513Z,33.40
2017-06-21T09:36:32.808Z,32.70
2017-06-21T09:39:01.116Z,32.70
2017-06-21T09:41:29.405Z,33.50
2017-06-21T09:43:57.719Z,33.90
2017-06-21T09:46:26.017Z,34.70
2017-06-21T09:48:54.341Z,36.60
2017-06-21T09:51:22.634Z,36.30
2017-06-21T09:53:50.924Z,37.40
2017-06-21T09:56:19.232Z,37.00
2017-06-21T09:58:47.548Z,37.30
2017-06-21T10:01:15.868Z,36.80
2017-06-21T10:03:44.291Z,36.70
2017-06-21T10:06:12.636Z,37.10
2017-06-21T10:08:40.964Z,35.90
2017-06-21T10:11:09.309Z,36.20
2017-06-21T10:13:37.605Z,35.40
2017-06-21T10:16:05.896Z,36.60
2017-06-21T10:18:34.209Z,37.20
2017-06-21T10:21:02.499Z,36.10
2017-06-21T10:23:30.832Z,35.40
2017-06-21T10:25:59.129Z,35.80
2017-06-21T10:28:27.443Z,37.50
2017-06-21T10:30:55.735Z,37.70
2017-06-21T10:33:24.064Z,37.60
2017-06-21T10:35:52.359Z,37.20
2017-06-21T10:38:20.657Z,37.40
2017-06-21T10:40:48.970Z,37.50
2017-06-21T10:43:17.272Z,37.30
2017-06-21T10:45:45.604Z,36.50
2017-06-21T10:48:13.913Z,35.80
2017-06-21T10:50:42.244Z,36.00
2017-06-21T10:53:10.547Z,35.50
2017-06-21T10:55:38.888Z,34.60
2017-06-21T10:58:07.187Z,34.20
2017-06-21T11:00:35.484Z,33.90
2017-06-21T11:03:03.796Z,33.90
2017-06-21T11:05:32.089Z,33.70
2017-06-21T11:08:00.412Z,34.00
2017-06-21T11:10:28.719Z,33.00
2017-06-21T11:12:57.042Z,32.90
2017-06-21T11:15:25.336Z,34.20
2017-06-21T11:17:53.660Z,34.10
2017-06-21T11:20:21.956Z,34.00
2017-06-21T11:22:50.249Z,33.00
2017-06-21T11:25:18.560Z,32.90
2017-06-21T11:27:46.869Z,32.60
2017-06-21T11:30:15.190Z,32.20
2017-06-21T11:32:43.476Z,32.40
2017-06-21T11:35:11.813Z,33.20
2017-06-21T11:37:40.133Z,33.00
2017-06-21T11:40:08.472Z,33.40
2017-06-21T11:42:36.764Z,33.30
2017-06-21T11:45:05.057Z,33.00
2017-06-21T11:47:33.372Z,32.70
2017-06-21T11:50:01.665Z,32.30
2017-06-21T11:52:29.982Z,31.00
2017-06-21T11:54:58.276Z,30.80
2017-06-21T11:57:26.593Z,31.80
2017-06-21T11:59:54.892Z,31.70
2017-06-21T12:02:23.213Z,32.30
2017-06-21T12:04:51.513Z,31.80
2017-06-21T12:07:19.040Z,31.80
2017-06-21T12:09:47.364Z,31.40
2017-06-21T12:12:15.678Z,30.60
2017-06-21T12:14:44.042Z,30.10
2017-06-21T12:17:12.372Z,29.80
2017-06-21T12:19:40.700Z,29.60
2017-06-21T12:22:09.001Z,29.80
2017-06-21T12:24:37.328Z,29.80
2017-06-21T12:27:06.268Z,29.60
2017-06-21T12:29:34.559Z,29.90
2017-06-21T12:32:02.873Z,29.70
2017-06-21T12:34:31.171Z,30.20
2017-06-21T12:36:59.501Z,29.90
2017-06-21T12:39:27.800Z,28.50
2017-06-21T12:41:56.107Z,29.20
2017-06-21T12:44:24.404Z,30.00
2017-06-21T12:46:52.944Z,29.60
2017-06-21T12:49:21.272Z,29.40
2017-06-21T12:51:49.697Z,29.10
2017-06-21T12:54:18.024Z,29.70
2017-06-21T12:56:46.325Z,30.60
2017-06-21T12:59:14.653Z,31.00
2017-06-21T13:01:44.366Z,30.40
2017-06-21T13:04:12.701Z,29.50
2017-06-21T13:06:41.037Z,29.60
2017-06-21T13:09:09.356Z,30.00
2017-06-21T13:11:37.656Z,30.00
2017-06-21T13:14:05.957Z,29.20
2017-06-21T13:16:34.274Z,28.80
2017-06-21T13:19:02.576Z,28.80
2017-06-21T13:21:30.904Z,29.20
2017-06-21T13:23:59.213Z,29.50
2017-06-21T13:26:27.533Z,30.00
2017-06-21T13:28:56.008Z,29.90
2017-06-21T13:31:24.512Z,29.70
2017-06-21T13:33:52.830Z,29.70
2017-06-21T13:36:21.121Z,29.70
2017-06-21T13:38:49.436Z,29.90
2017-06-21T13:41:17.736Z,29.70
2017-06-21T13:43:46.053Z,29.60
2017-06-21T13:46:14.369Z,29.90
2017-06-21T13:48:42.683Z,30.00
2017-06-21T13:51:11.054Z,29.80
2017-06-21T13:53:39.368Z,29.90
2017-06-21T13:56:07.660Z,29.20
2017-06-21T13:58:35.954Z,29.50
2017-06-21T14:01:04.269Z,29.30
2017-06-21T14:03:32.564Z,29.40
2017-06-21T14:06:00.880Z,29.00
2017-06-21T14:08:29.178Z,29.00
2017-06-21T14:10:57.488Z,28.50
2017-06-21T14:13:25.011Z,28.50
2017-06-21T14:15:53.348Z,29.10
2017-06-21T14:18:21.636Z,27.80
2017-06-21T14:20:49.920Z,27.70
2017-06-21T14:23:18.233Z,27.80
2017-06-21T14:25:46.533Z,27.50
2017-06-21T14:28:14.847Z,27.50
2017-06-21T14:30:43.170Z,27.60
2017-06-21T14:33:11.516Z,27.60
2017-06-21T14:35:39.812Z,27.40
2017-06-21T14:38:08.131Z,27.50
2017-06-21T14:40:36.422Z,27.90
2017-06-21T14:43:04.708Z,27.80
2017-06-21T14:45:33.021Z,27.70
2017-06-21T14:48:02.340Z,27.20
2017-06-21T14:50:30.668Z,27.40
2017-06-21T14:52:58.971Z,27.10
2017-06-21T14:55:27.286Z,27.20
2017-06-21T14:57:55.587Z,27.00
2017-06-21T15:00:23.897Z,27.10
2017-06-21T15:02:52.194Z,28.10
2017-06-21T15:05:20.516Z,28.20
2017-06-21T15:07:48.824Z,28.30
2017-06-21T15:10:17.116Z,28.80
2017-06-21T15:12:45.438Z,28.30
2017-06-21T15:15:13.765Z,28.30
2017-06-21T15:17:42.877Z,28.80
2017-06-21T15:20:11.178Z,28.50
2017-06-21T15:22:39.496Z,28.90
2017-06-21T15:25:07.793Z,29.20
2017-06-21T15:27:36.080Z,29.90
2017-06-21T15:30:04.389Z,29.50
2017-06-21T15:32:32.693Z,29.20
2017-06-21T15:35:01.010Z,28.70
2017-06-21T15:37:29.296Z,28.50
2017-06-21T15:39:57.608Z,28.50
2017-06-21T15:42:25.896Z,28.40
2017-06-21T15:44:54.236Z,28.70
2017-06-21T15:47:22.521Z,28.70
2017-06-21T15:49:50.817Z,28.40
2017-06-21T15:52:18.359Z,28.40
2017-06-21T15:54:46.652Z,27.70
2017-06-21T15:57:14.964Z,27.70
2017-06-21T15:59:43.254Z,27.60
2017-06-21T16:02:11.597Z,27.20
2017-06-21T16:04:39.898Z,27.60
2017-06-21T16:07:08.204Z,27.50
2017-06-21T16:09:36.496Z,27.50
2017-06-21T16:12:04.783Z,27.90
2017-06-21T16:14:33.096Z,28.20
2017-06-21T16:17:01.436Z,28.30
2017-06-21T16:19:29.783Z,28.40
2017-06-21T16:21:58.077Z,28.20
2017-06-21T16:24:26.932Z,28.60
2017-06-21T16:26:55.236Z,28.20
2017-06-21T16:29:23.577Z,27.90
2017-06-21T16:31:51.886Z,28.30
2017-06-21T16:34:20.188Z,27.70
2017-06-21T16:36:48.570Z,28.20
2017-06-21T16:39:16.868Z,27.90
2017-06-21T16:41:45.181Z,27.70
2017-06-21T16:44:12.725Z,27.70
2017-06-21T16:46:41.045Z,27.90
2017-06-21T16:49:09.336Z,28.20
2017-06-21T16:51:37.665Z,28.90
2017-06-21T16:54:05.184Z,28.90
2017-06-21T16:56:33.469Z,28.10
2017-06-21T16:59:01.785Z,27.60
2017-06-21T17:01:30.089Z,27.60
2017-06-21T17:03:58.401Z,27.20
2017-06-21T17:06:26.693Z,27.20
2017-06-21T17:08:55.000Z,27.10
2017-06-21T17:11:23.285Z,26.40
2017-06-21T17:13:51.600Z,25.90
2017-06-21T17:16:19.885Z,25.30
2017-06-21T17:18:47.421Z,25.30
2017-06-21T17:21:15.736Z,24.40
2017-06-21T17:23:44.050Z,23.20
2017-06-21T17:26:12.369Z,23.50
2017-06-21T17:28:40.682Z,23.20
2017-06-21T17:31:08.997Z,22.90
2017-06-21T17:33:36.516Z,22.90
2017-06-21T17:36:04.845Z,22.20
2017-06-21T17:38:33.141Z,21.80
2017-06-21T17:41:01.437Z,21.70
2017-06-21T17:43:29.758Z,21.40
2017-06-21T17:45:58.044Z,21.60
2017-06-21T17:48:26.353Z,21.40
2017-06-21T17:50:54.645Z,21.90
2017-06-21T17:53:22.957Z,21.50
2017-06-21T17:55:51.246Z,21.40
2017-06-21T17:58:19.563Z,20.90
2017-06-21T18:00:47.854Z,20.60
2017-06-21T18:03:16.152Z,20.50
2017-06-21T18:05:44.489Z,20.30
2017-06-21T18:08:12.021Z,20.30
2017-06-21T18:10:39.612Z,20.50
2017-06-21T18:13:07.901Z,20.00
2017-06-21T18:15:36.209Z,20.20
2017-06-21T18:18:04.510Z,20.40
2017-06-21T18:20:32.844Z,20.60
2017-06-21T18:23:01.146Z,20.70
2017-06-21T18:25:29.437Z,20.90
2017-06-21T18:27:57.744Z,21.00
2017-06-21T18:30:25.288Z,21.10
2017-06-21T18:32:53.588Z,21.40
2017-06-21T18:35:21.873Z,22.20
2017-06-21T18:37:50.185Z,23.30
2017-06-21T18:40:18.498Z,24.40
2017-06-21T18:42:46.843Z,25.70
2017-06-21T18:45:15.146Z,27.20
2017-06-21T18:47:43.468Z,27.90
2017-06-21T18:50:11.912Z,28.70
2017-06-21T18:52:40.199Z,29.50
2017-06-21T18:55:08.529Z,31.70
2017-06-21T18:57:36.061Z,31.10
2017-06-21T19:00:04.373Z,32.30
2017-06-21T19:02:32.657Z,32.70
2017-06-21T19:05:00.977Z,33.70
2017-06-21T19:07:29.283Z,34.40
2017-06-21T19:09:57.581Z,35.30
2017-06-21T19:12:25.897Z,36.30
2017-06-21T19:14:54.213Z,37.10
2017-06-21T19:17:21.782Z,37.10
2017-06-21T19:19:50.089Z,37.90
2017-06-21T19:22:18.397Z,38.40
2017-06-21T19:24:46.705Z,39.70
2017-06-21T19:27:15.042Z,39.60
2017-06-21T19:29:43.370Z,39.50
2017-06-21T19:32:11.683Z,40.30
2017-06-21T19:34:40.009Z,41.00
2017-06-21T19:37:08.312Z,41.70
2017-06-21T19:39:36.688Z,42.20
2017-06-21T19:42:04.996Z,42.50
2017-06-21T19:44:33.308Z,43.20
2017-06-21T19:47:01.615Z,42.90
2017-06-21T19:49:29.179Z,42.90
2017-06-21T19:51:57.510Z,44.40
2017-06-21T19:54:25.803Z,44.70
2017-06-21T19:56:54.120Z,44.70
2017-06-21T19:59:22.421Z,45.10
2017-06-21T20:01:50.724Z,45.70
2017-06-21T20:04:19.012Z,46.00
2017-06-21T20:06:47.328Z,46.10
2017-06-21T20:09:15.630Z,46.60
2017-06-21T20:11:43.958Z,47.00
2017-06-21T20:14:12.268Z,47.30
2017-06-21T20:16:40.566Z,47.70
2017-06-21T20:19:08.940Z,48.30
2017-06-21T20:21:37.229Z,48.50
2017-06-21T20:24:05.548Z,49.30
2017-06-21T20:26:33.837Z,49.50
2017-06-21T20:29:02.163Z,49.80
2017-06-21T20:31:30.476Z,50.30
2017-06-21T20:33:58.792Z,50.90
2017-06-21T20:36:27.085Z,51.20
2017-06-21T20:38:55.409Z,51.90
2017-06-21T20:41:23.716Z,52.20
2017-06-21T20:43:52.009Z,52.40
2017-06-21T20:46:20.316Z,52.70
2017-06-21T20:48:48.609Z,53.00
2017-06-21T20:51:16.929Z,53.70
2017-06-21T20:53:45.233Z,54.20
2017-06-21T20:56:13.587Z,54.60
2017-06-21T20:58:41.910Z,55.00
2017-06-21T21:01:10.209Z,55.20
2017-06-21T21:03:38.524Z,55.50
2017-06-21T21:06:06.825Z,55.80
2017-06-21T21:08:35.140Z,56.10
2017-06-21T21:11:03.424Z,56.50
2017-06-21T21:13:31.740Z,56.50
2017-06-21T21:16:00.028Z,56.50
2017-06-21T21:18:28.349Z,56.70
2017-06-21T21:20:56.640Z,57.10
2017-06-21T21:23:24.932Z,57.20
2017-06-21T21:25:53.244Z,57.20
2017-06-21T21:28:21.535Z,57.30
2017-06-21T21:30:49.849Z,57.20
2017-06-21T21:33:18.144Z,57.30
2017-06-21T21:35:46.462Z,58.00
2017-06-21T21:38:14.792Z,57.70
2017-06-21T21:40:43.096Z,58.00
2017-06-21T21:43:11.474Z,58.00
2017-06-21T21:45:39.773Z,57.90
2017-06-21T21:48:08.085Z,58.00
2017-06-21T21:50:36.380Z,58.50
2017-06-21T21:53:03.945Z,58.40
2017-06-21T21:55:32.241Z,58.90
2017-06-21T21:58:00.553Z,59.20
2017-06-21T22:00:28.870Z,59.50
2017-06-21T22:02:57.192Z,59.70
2017-06-21T22:05:25.503Z,60.10
2017-06-21T22:07:53.796Z,60.20
2017-06-21T22:10:22.110Z,60.00
2017-06-21T22:12:50.422Z,60.10
2017-06-21T22:15:18.893Z,60.40
2017-06-21T22:17:47.225Z,60.60
2017-06-21T22:20:15.182Z,60.60
2017-06-21T22:22:42.775Z,61.00
2017-06-21T22:25:11.093Z,61.10
2017-06-21T22:27:39.416Z,61.30
2017-06-21T22:30:07.713Z,62.70
2017-06-21T22:32:36.040Z,62.10
2017-06-21T22:35:04.332Z,62.40
2017-06-21T22:37:32.649Z,62.50
2017-06-21T22:40:00.956Z,63.10
2017-06-21T22:42:29.254Z,63.40
2017-06-21T22:44:57.572Z,63.00
2017-06-21T22:47:25.865Z,62.90
2017-06-21T22:49:55.120Z,62.90
2017-06-21T22:52:23.408Z,62.90
2017-06-21T22:54:51.720Z,63.10
2017-06-21T22:57:20.008Z,63.60
2017-06-21T22:59:48.324Z,63.80
2017-06-21T23:02:16.636Z,64.30
2017-06-21T23:04:44.961Z,64.40
2017-06-21T23:07:13.317Z,64.50
2017-06-21T23:09:41.625Z,64.60
2017-06-21T23:12:09.939Z,64.50
2017-06-21T23:14:38.232Z,64.50
2017-06-21T23:17:06.549Z,65.00
2017-06-21T23:19:34.847Z,65.80
2017-06-21T23:22:03.176Z,65.10
2017-06-21T23:24:31.473Z,65.20
2017-06-21T23:26:59.788Z,65.30
2017-06-21T23:29:28.104Z,66.20
2017-06-21T23:31:56.398Z,65.40
2017-06-21T23:34:24.713Z,65.70
2017-06-21T23:36:53.007Z,65.80
2017-06-21T23:39:21.324Z,65.90
2017-06-21T23:41:49.624Z,65.80
2017-06-21T23:44:17.941Z,66.30
2017-06-21T23:46:46.244Z,67.70
2017-06-21T23:49:14.567Z,66.60
2017-06-21T23:51:42.153Z,66.60
2017-06-21T23:54:10.440Z,66.70
2017-06-21T23:56:38.760Z,67.30
2017-06-21T23:59:07.053Z,67.50
